Time;durP1;ratioP1;P1;durP2;ratioP2;P2;SDS_P1;SDS_P2;PMS_P1;PMS_P2;Temp;Humidity;BMP_temperature;BMP_pressure;BME280_temperature;BME280_humidity;BME280_pressure;Samples;Min_cycle;Max_cycle;Signal;HPM_P1;HPM_P2
2024/01/10 00:02:03;;;;;;;19.53;12.10;;;-3.10;78.20;;;;;;5011302;28;20416;-84
2024/01/10 00:04:29;;;;;;;19.00;12.07;;;-3.10;78.20;;;;;;4994290;28;20149;-83
2024/01/10 00:06:55;;;;;;;21.60;12.77;;;-3.20;78.10;;;;;;4997972;28;20407;-83
2024/01/10 00:09:20;;;;;;;22.63;12.93;;;-3.20;78.20;;;;;;4997244;28;20109;-84
2024/01/10 00:11:46;;;;;;;20.47;12.67;;;-3.20;78.20;;;;;;4999340;28;20539;-83
2024/01/10 00:14:11;;;;;;;22.57;13.27;;;-3.20;78.20;;;;;;4997910;28;20041;-83
2024/01/10 00:16:37;;;;;;;21.50;13.10;;;-3.20;78.20;;;;;;4999740;28;20061;-82
2024/01/10 00:19:03;;;;;;;21.33;11.83;;;-3.20;78.30;;;;;;4998253;28;20042;-83
2024/01/10 00:21:29;;;;;;;20.73;13.67;;;-3.20;78.40;;;;;;4999228;28;20038;-83
2024/01/10 00:23:54;;;;;;;19.97;12.37;;;-3.30;78.20;;;;;;5002688;28;20499;-83
2024/01/10 00:26:20;;;;;;;18.27;12.17;;;-3.20;78.70;;;;;;5001564;28;20186;-83
2024/01/10 00:28:46;;;;;;;23.57;14.83;;;-3.30;78.40;;;;;;5009288;28;20056;-83
2024/01/10 00:31:12;;;;;;;20.07;12.27;;;-3.30;78.80;;;;;;5011592;28;20089;-82
2024/01/10 00:33:39;;;;;;;19.03;12.03;;;-3.30;78.30;;;;;;5009515;28;20034;-82
2024/01/10 00:36:05;;;;;;;22.63;13.50;;;-3.30;78.40;;;;;;5020602;28;20034;-83
2024/01/10 00:38:30;;;;;;;23.70;14.27;;;-3.30;78.30;;;;;;5004088;28;20116;-84
2024/01/10 00:40:56;;;;;;;20.03;14.27;;;-3.30;78.40;;;;;;5002627;28;20520;-84
2024/01/10 00:43:22;;;;;;;19.43;12.90;;;-3.30;78.40;;;;;;5020618;28;20125;-84
2024/01/10 00:45:47;;;;;;;19.17;12.33;;;-2.60;78.90;;;;;;5003357;28;20513;-83
2024/01/10 00:48:13;;;;;;;20.33;12.70;;;-3.40;78.40;;;;;;5004249;28;20046;-83
2024/01/10 00:50:39;;;;;;;21.90;14.03;;;-3.30;78.50;;;;;;5005167;28;20037;-84
2024/01/10 00:53:04;;;;;;;20.20;12.17;;;-3.40;78.50;;;;;;5003777;28;20808;-84
2024/01/10 00:55:30;;;;;;;20.57;12.40;;;-3.40;78.40;;;;;;5005559;28;20060;-84
2024/01/10 00:57:55;;;;;;;17.43;11.10;;;-3.40;78.40;;;;;;5019692;28;20041;-84
2024/01/10 01:00:21;;;;;;;21.10;12.77;;;-3.40;78.50;;;;;;5021242;28;20042;-84
2024/01/10 01:02:47;;;;;;;21.17;12.07;;;-3.40;78.40;;;;;;5020754;28;20037;-84
2024/01/10 01:05:12;;;;;;;20.97;12.93;;;-3.40;78.50;;;;;;5016959;28;20077;-84
2024/01/10 01:07:38;;;;;;;20.83;12.73;;;-3.40;78.80;;;;;;5010054;28;20170;-84
2024/01/10 01:10:05;;;;;;;18.10;11.87;;;-3.50;78.40;;;;;;5005408;28;20397;-85
2024/01/10 01:12:31;;;;;;;23.37;13.77;;;-3.50;78.40;;;;;;5004943;28;20046;-85
2024/01/10 01:14:56;;;;;;;18.10;11.50;;;-3.50;78.40;;;;;;4998220;28;20408;-85
2024/01/10 01:17:22;;;;;;;16.83;11.40;;;-3.50;78.40;;;;;;5015073;28;20041;-85
2024/01/10 01:19:47;;;;;;;18.43;11.70;;;-3.50;78.40;;;;;;5015999;28;20042;-86
2024/01/10 01:22:13;;;;;;;20.70;13.57;;;-3.50;78.50;;;;;;4998532;28;20477;-86
2024/01/10 01:24:39;;;;;;;21.53;11.80;;;-3.50;78.50;;;;;;4998706;28;20066;-86
2024/01/10 01:27:04;;;;;;;19.10;10.90;;;-3.50;78.60;;;;;;5001030;28;20030;-86
2024/01/10 01:29:30;;;;;;;19.93;14.00;;;-3.50;78.60;;;;;;5001799;28;20045;-86
2024/01/10 01:31:56;;;;;;;21.17;11.70;;;-3.50;78.50;;;;;;4999842;28;20048;-86
2024/01/10 01:34:21;;;;;;;21.70;12.57;;;-3.50;78.50;;;;;;5018675;28;20128;-86
2024/01/10 01:36:47;;;;;;;18.50;11.17;;;-3.50;78.60;;;;;;5004266;28;20113;-86
2024/01/10 01:39:13;;;;;;;19.60;13.07;;;-3.50;78.50;;;;;;5018170;28;20049;-86
2024/01/10 01:41:40;;;;;;;16.87;10.70;;;-3.50;78.50;;;;;;5001028;28;20037;-86
2024/01/10 01:44:05;;;;;;;19.67;11.50;;;-3.50;78.40;;;;;;5020719;28;20085;-86
2024/01/10 01:46:32;;;;;;;17.80;11.53;;;-3.50;78.30;;;;;;5021584;28;20037;-86
2024/01/10 01:48:59;;;;;;;17.37;10.83;;;-3.50;78.50;;;;;;5006253;28;20037;-86
2024/01/10 01:51:28;;;;;;;15.83;10.30;;;-3.50;78.10;;;;;;4998906;28;20199;-86
2024/01/10 01:53:54;;;;;;;17.23;10.47;;;-3.40;78.00;;;;;;5017535;28;20038;-87
2024/01/10 01:56:20;;;;;;;18.80;10.90;;;-3.40;77.90;;;;;;5000353;28;20129;-86
2024/01/10 01:58:48;;;;;;;17.27;10.53;;;-3.40;77.60;;;;;;5020519;28;20057;-87
2024/01/10 02:01:13;;;;;;;21.63;11.87;;;-3.40;77.60;;;;;;4997955;28;20163;-87
2024/01/10 02:03:39;;;;;;;18.63;11.53;;;-3.40;77.50;;;;;;5003764;28;20029;-87
2024/01/10 02:06:05;;;;;;;18.47;10.67;;;-3.40;77.30;;;;;;4998900;28;20037;-87
2024/01/10 02:08:35;;;;;;;17.50;10.83;;;-3.40;77.20;;;;;;5002652;28;20366;-87
2024/01/10 02:11:02;;;;;;;16.57;10.73;;;-3.40;77.20;;;;;;5001042;28;20034;-87
2024/01/10 02:13:28;;;;;;;17.07;10.70;;;-3.40;76.90;;;;;;5017098;28;20047;-87
2024/01/10 02:15:54;;;;;;;17.77;10.73;;;-3.40;77.00;;;;;;5016704;28;20041;-87
2024/01/10 02:18:20;;;;;;;19.87;11.90;;;-3.40;76.80;;;;;;5017565;28;20125;-87
2024/01/10 02:20:46;;;;;;;14.80;10.83;;;-3.40;76.70;;;;;;5016912;28;20204;-87
2024/01/10 02:23:12;;;;;;;18.13;11.57;;;-3.40;76.80;;;;;;5016008;28;20128;-87
2024/01/10 02:25:39;;;;;;;18.43;11.63;;;-3.40;76.60;;;;;;5004087;28;20049;-87
2024/01/10 02:28:05;;;;;;;17.50;11.50;;;-3.40;76.60;;;;;;5006072;28;20112;-87
2024/01/10 02:30:31;;;;;;;15.90;10.73;;;-3.40;76.40;;;;;;5004928;28;20124;-86
2024/01/10 02:32:57;;;;;;;18.53;11.53;;;-3.40;76.40;;;;;;4998264;28;20038;-87
2024/01/10 02:35:22;;;;;;;20.80;11.93;;;-3.40;76.40;;;;;;5001533;28;20049;-87
2024/01/10 02:37:51;;;;;;;20.30;12.70;;;-3.40;76.40;;;;;;5001594;28;20044;-87
2024/01/10 02:40:17;;;;;;;20.17;12.20;;;-3.50;76.40;;;;;;4997790;28;20038;-87
2024/01/10 02:42:43;;;;;;;21.03;12.30;;;-3.40;76.50;;;;;;5015862;28;20037;-87
2024/01/10 02:45:08;;;;;;;19.07;11.70;;;-3.40;76.40;;;;;;5015247;28;20057;-87
2024/01/10 02:47:36;;;;;;;21.27;12.43;;;-3.40;76.20;;;;;;5001818;28;20112;-87
2024/01/10 02:50:02;;;;;;;18.40;11.90;;;-3.50;76.10;;;;;;5001823;28;20084;-87
2024/01/10 02:52:27;;;;;;;19.50;11.90;;;-3.50;76.10;;;;;;5001155;28;20041;-87
2024/01/10 02:54:53;;;;;;;17.03;10.83;;;-3.50;76.10;;;;;;5017263;28;20044;-87
2024/01/10 02:57:19;;;;;;;20.87;12.07;;;-3.50;76.00;;;;;;5002772;28;20401;-87
2024/01/10 02:59:44;;;;;;;20.13;11.87;;;-3.50;76.40;;;;;;5020906;28;20041;-87
2024/01/10 03:02:10;;;;;;;19.47;11.83;;;-3.40;76.00;;;;;;5016032;28;20038;-87
2024/01/10 03:04:35;;;;;;;20.93;11.90;;;-3.50;75.90;;;;;;5004603;28;20048;-87
2024/01/10 03:07:01;;;;;;;17.83;10.97;;;-3.50;75.90;;;;;;5023895;28;20030;-87
2024/01/10 03:09:27;;;;;;;18.23;11.87;;;-3.50;75.90;;;;;;5015560;28;20067;-87
2024/01/10 03:11:52;;;;;;;19.60;11.60;;;-3.40;75.80;;;;;;5001992;28;20049;-87
2024/01/10 03:14:18;;;;;;;17.13;11.40;;;-3.50;75.70;;;;;;5012987;28;20038;-86
2024/01/10 03:16:44;;;;;;;19.63;12.57;;;-3.50;75.60;;;;;;5021774;28;20033;-87
2024/01/10 03:19:09;;;;;;;17.33;11.30;;;-3.50;75.50;;;;;;5001383;28;20034;-87
2024/01/10 03:21:35;;;;;;;17.63;11.53;;;-3.50;75.40;;;;;;5005092;28;20080;-87
2024/01/10 03:24:01;;;;;;;19.33;12.00;;;-3.50;75.40;;;;;;5000627;28;20034;-87
2024/01/10 03:26:28;;;;;;;20.40;11.77;;;-3.50;75.30;;;;;;4999141;28;20034;-87
2024/01/10 03:28:54;;;;;;;20.87;11.43;;;-3.50;75.40;;;;;;4997195;28;20171;-87
2024/01/10 03:31:20;;;;;;;20.90;13.00;;;-3.50;75.50;;;;;;5002466;28;20041;-87
2024/01/10 03:33:46;;;;;;;21.10;12.40;;;-3.50;75.50;;;;;;4994586;28;20745;-87
2024/01/10 03:36:16;;;;;;;18.90;12.13;;;-3.50;75.50;;;;;;5001737;28;20196;-87
2024/01/10 03:38:41;;;;;;;19.70;12.17;;;-3.50;75.40;;;;;;4997396;28;20472;-87
2024/01/10 03:41:07;;;;;;;21.20;13.03;;;-3.50;75.40;;;;;;5001024;28;20042;-87
2024/01/10 03:43:33;;;;;;;20.63;13.53;;;-3.60;75.30;;;;;;5013109;28;20045;-88
2024/01/10 03:45:58;;;;;;;22.27;12.00;;;-3.60;75.40;;;;;;4998078;28;20045;-87
2024/01/10 03:48:29;;;;;;;18.53;12.57;;;-3.60;75.30;;;;;;5021022;28;20116;-87
2024/01/10 03:50:54;;;;;;;18.90;12.23;;;-3.60;75.40;;;;;;5002874;28;20045;-87
2024/01/10 03:53:20;;;;;;;21.43;13.03;;;-3.60;75.50;;;;;;4997360;28;20467;-87
2024/01/10 03:55:46;;;;;;;18.77;12.63;;;-3.60;75.50;;;;;;4996674;28;20029;-86
2024/01/10 03:58:11;;;;;;;18.50;11.60;;;-3.60;75.50;;;;;;5017023;28;20172;-87
2024/01/10 04:00:37;;;;;;;20.77;13.00;;;-3.60;75.60;;;;;;5002461;28;20069;-86
2024/01/10 04:03:04;;;;;;;18.10;11.43;;;-3.60;75.60;;;;;;5016099;28;20401;-87
2024/01/10 04:05:30;;;;;;;22.87;13.40;;;-3.60;75.60;;;;;;4997822;28;20077;-87
2024/01/10 04:07:56;;;;;;;21.70;12.07;;;-3.60;75.60;;;;;;4994769;28;20065;-87
2024/01/10 04:10:22;;;;;;;21.50;12.30;;;-3.60;75.50;;;;;;4995254;28;20060;-87
2024/01/10 04:12:49;;;;;;;19.70;12.20;;;-3.60;75.50;;;;;;4993642;28;20517;-87
2024/01/10 04:15:14;;;;;;;20.23;11.87;;;-3.60;75.60;;;;;;5011941;28;20061;-86
2024/01/10 04:17:40;;;;;;;21.53;13.23;;;-3.60;75.60;;;;;;4995096;28;20069;-87
2024/01/10 04:20:07;;;;;;;18.80;12.23;;;-3.70;75.60;;;;;;4996322;28;20162;-87
2024/01/10 04:22:32;;;;;;;21.17;13.03;;;-3.60;75.70;;;;;;4996630;28;20098;-87
2024/01/10 04:24:59;;;;;;;23.87;12.70;;;-3.50;75.70;;;;;;5011938;28;20038;-87
2024/01/10 04:27:26;;;;;;;17.30;11.83;;;-3.60;75.60;;;;;;4997221;28;20052;-87
2024/01/10 04:29:51;;;;;;;21.43;13.50;;;-3.60;75.60;;;;;;5010140;28;20049;-87
2024/01/10 04:32:17;;;;;;;21.73;13.07;;;-3.60;75.50;;;;;;4996300;28;20038;-87
2024/01/10 04:34:43;;;;;;;17.87;11.90;;;-3.60;75.40;;;;;;4996060;28;20038;-86
2024/01/10 04:37:09;;;;;;;21.07;12.53;;;-3.60;75.30;;;;;;5013572;28;20184;-86
2024/01/10 04:39:37;;;;;;;21.00;12.57;;;-3.60;75.30;;;;;;4996363;28;20033;-87
2024/01/10 04:42:03;;;;;;;19.60;12.33;;;-3.70;75.30;;;;;;4998536;28;20041;-86
2024/01/10 04:44:29;;;;;;;22.93;12.97;;;-3.70;75.30;;;;;;5016981;28;20091;-86
2024/01/10 04:46:55;;;;;;;21.73;13.03;;;-3.60;75.40;;;;;;5001906;28;20168;-86
2024/01/10 04:49:21;;;;;;;21.37;12.37;;;-3.60;75.40;;;;;;5004314;28;20037;-86
2024/01/10 04:51:47;;;;;;;18.20;12.73;;;-3.60;75.30;;;;;;5013485;28;20025;-85
2024/01/10 04:54:12;;;;;;;20.37;13.27;;;-3.70;75.20;;;;;;4999974;28;20057;-86
2024/01/10 04:56:38;;;;;;;19.47;11.43;;;-3.60;75.30;;;;;;5001832;28;20029;-86
2024/01/10 04:59:04;;;;;;;19.13;12.33;;;-3.70;75.30;;;;;;4996116;28;20038;-86
2024/01/10 05:01:31;;;;;;;20.50;12.23;;;-3.70;75.20;;;;;;5015939;28;20069;-86
2024/01/10 05:03:57;;;;;;;21.60;12.90;;;-3.70;75.20;;;;;;5013014;28;20045;-87
2024/01/10 05:06:23;;;;;;;20.93;12.60;;;-3.10;75.70;;;;;;5002416;28;20044;-86
2024/01/10 05:08:49;;;;;;;17.63;11.40;;;-3.70;75.20;;;;;;4998221;28;20109;-85
2024/01/10 05:11:16;;;;;;;20.13;11.90;;;-3.70;75.20;;;;;;4995836;28;20033;-86
2024/01/10 05:13:42;;;;;;;21.70;12.60;;;-3.70;75.30;;;;;;4994714;28;20065;-85
2024/01/10 05:16:08;;;;;;;21.27;13.23;;;-3.70;75.40;;;;;;4999172;28;20116;-86
2024/01/10 05:18:34;;;;;;;20.00;12.23;;;-3.70;75.40;;;;;;5016676;28;20449;-85
2024/01/10 05:21:00;;;;;;;18.03;11.10;;;-3.70;75.40;;;;;;5005192;28;20507;-85
2024/01/10 05:23:26;;;;;;;22.03;13.27;;;-3.70;75.40;;;;;;5001974;28;20442;-86
2024/01/10 05:25:52;;;;;;;22.23;14.33;;;-3.70;75.50;;;;;;5002005;28;20044;-87
2024/01/10 05:28:17;;;;;;;20.87;12.93;;;-3.40;75.80;;;;;;5014101;28;20029;-86
2024/01/10 05:30:43;;;;;;;22.07;13.47;;;-3.70;75.50;;;;;;5003777;28;20096;-86
2024/01/10 05:33:10;;;;;;;19.93;12.97;;;-3.70;75.50;;;;;;5005390;28;20055;-86
2024/01/10 05:35:40;;;;;;;20.90;12.97;;;-3.60;75.60;;;;;;5030749;28;20109;-86
2024/01/10 05:38:05;;;;;;;21.43;12.13;;;-3.70;75.50;;;;;;5019493;28;20038;-87
2024/01/10 05:40:31;;;;;;;20.87;12.33;;;-3.70;75.50;;;;;;5014663;28;20061;-87
2024/01/10 05:43:00;;;;;;;22.17;14.87;;;-3.70;75.50;;;;;;4998033;28;20042;-86
2024/01/10 05:45:26;;;;;;;20.23;12.13;;;-3.70;75.50;;;;;;5022454;28;20053;-86
2024/01/10 05:47:52;;;;;;;18.90;11.77;;;-3.70;75.40;;;;;;5018684;28;20080;-87
2024/01/10 05:50:18;;;;;;;19.73;11.93;;;-3.60;75.50;;;;;;5002660;28;20041;-86
2024/01/10 05:52:44;;;;;;;19.20;12.17;;;-3.60;75.50;;;;;;5006236;28;20400;-86
2024/01/10 05:55:10;;;;;;;21.43;13.40;;;-3.70;75.40;;;;;;5004633;28;20037;-86
2024/01/10 05:57:37;;;;;;;20.50;12.60;;;-3.70;75.40;;;;;;5004078;28;20042;-87
2024/01/10 06:00:09;;;;;;;18.17;11.90;;;-3.60;75.60;;;;;;5004619;28;20450;-87
2024/01/10 06:02:38;;;;;;;18.63;11.27;;;-3.60;75.60;;;;;;5001530;28;20120;-87
2024/01/10 06:05:08;;;;;;;18.87;12.07;;;-3.60;75.60;;;;;;5003736;28;20114;-85
2024/01/10 06:07:38;;;;;;;21.33;12.50;;;-3.60;75.50;;;;;;5009129;28;20044;-86
2024/01/10 06:10:05;;;;;;;21.07;11.83;;;-3.60;75.40;;;;;;5027821;28;20162;-86
2024/01/10 06:12:31;;;;;;;18.93;11.93;;;-3.60;75.30;;;;;;5001937;28;20133;-87
2024/01/10 06:14:57;;;;;;;21.93;12.87;;;-3.60;75.50;;;;;;5005337;28;20096;-87
2024/01/10 06:17:24;;;;;;;22.00;13.13;;;-3.60;74.90;;;;;;4998580;28;20034;-87
2024/01/10 06:19:50;;;;;;;21.23;12.83;;;-3.60;74.80;;;;;;5006515;28;20037;-86
2024/01/10 06:22:16;;;;;;;21.10;12.50;;;-3.60;74.60;;;;;;5015838;28;20385;-86
2024/01/10 06:24:43;;;;;;;20.63;13.20;;;-3.60;74.70;;;;;;5020433;28;20040;-86
2024/01/10 06:27:10;;;;;;;20.43;12.63;;;-3.60;74.70;;;;;;5025270;28;20141;-86
2024/01/10 06:29:36;;;;;;;21.20;13.17;;;-3.60;74.70;;;;;;5000108;28;20046;-86
2024/01/10 06:32:06;;;;;;;20.93;12.77;;;-3.60;74.70;;;;;;4998563;28;20146;-86
2024/01/10 06:34:32;;;;;;;20.77;12.47;;;-3.60;74.70;;;;;;5008776;28;20455;-85
2024/01/10 06:36:58;;;;;;;19.27;12.47;;;-3.60;74.60;;;;;;4993487;28;20033;-85
2024/01/10 06:39:23;;;;;;;21.07;12.27;;;-3.70;74.50;;;;;;5011176;28;20040;-86
2024/01/10 06:41:49;;;;;;;19.37;12.53;;;-3.70;74.40;;;;;;5017016;28;20034;-85
2024/01/10 06:44:17;;;;;;;18.23;12.47;;;-3.70;74.40;;;;;;5016538;28;20046;-85
2024/01/10 06:46:43;;;;;;;20.73;12.37;;;-3.70;74.40;;;;;;4998086;28;20153;-85
2024/01/10 06:49:09;;;;;;;21.17;13.20;;;-3.70;74.30;;;;;;4995802;28;20049;-85
2024/01/10 06:51:35;;;;;;;20.80;11.97;;;-3.70;74.30;;;;;;4995205;28;20030;-85
2024/01/10 06:54:03;;;;;;;18.97;12.20;;;-3.70;74.20;;;;;;4998748;28;20493;-85
2024/01/10 06:56:33;;;;;;;19.50;12.30;;;-3.70;74.30;;;;;;4997085;28;20127;-85
2024/01/10 06:59:00;;;;;;;19.47;11.17;;;-3.70;74.30;;;;;;5023504;28;20057;-85
2024/01/10 07:01:26;;;;;;;17.60;10.73;;;-3.70;74.30;;;;;;5027626;28;20113;-87
2024/01/10 07:03:54;;;;;;;17.07;10.67;;;-3.70;74.20;;;;;;5000672;28;20047;-84
2024/01/10 07:06:20;;;;;;;17.30;10.53;;;-3.70;74.10;;;;;;5005351;28;20088;-85
2024/01/10 07:08:47;;;;;;;19.83;12.10;;;-3.70;74.10;;;;;;5010993;28;20057;-85
2024/01/10 07:11:13;;;;;;;18.73;11.87;;;-3.70;73.90;;;;;;5007879;28;20065;-85
2024/01/10 07:13:39;;;;;;;19.17;12.07;;;-3.70;73.70;;;;;;5003444;28;20453;-84
2024/01/10 07:16:05;;;;;;;18.30;10.70;;;-3.60;74.30;;;;;;5020901;28;20084;-84
2024/01/10 07:18:31;;;;;;;16.87;10.60;;;-3.70;73.60;;;;;;4999465;28;20030;-84
2024/01/10 07:20:56;;;;;;;17.23;10.33;;;-3.60;73.50;;;;;;5003774;28;20464;-83
2024/01/10 07:23:25;;;;;;;16.73;10.70;;;-3.60;73.40;;;;;;5007954;28;20037;-83
2024/01/10 07:25:50;;;;;;;16.83;11.53;;;-3.60;73.60;;;;;;5016075;28;20053;-83
2024/01/10 07:28:17;;;;;;;20.23;12.47;;;-3.60;73.20;;;;;;5024293;28;20033;-83
2024/01/10 07:30:44;;;;;;;17.87;11.37;;;-3.60;72.90;;;;;;5001406;28;20045;-83
2024/01/10 07:33:10;;;;;;;17.57;11.13;;;-3.60;72.80;;;;;;5017868;28;20048;-84
2024/01/10 07:35:36;;;;;;;15.23;10.43;;;-3.70;72.60;;;;;;5003744;28;20120;-83
2024/01/10 07:38:01;;;;;;;16.10;11.00;;;-3.70;72.60;;;;;;5001957;28;20073;-83
2024/01/10 07:40:27;;;;;;;17.80;11.63;;;-3.70;72.50;;;;;;5004995;28;20514;-83
2024/01/10 07:42:53;;;;;;;16.67;11.00;;;-3.70;72.40;;;;;;5017572;28;20037;-83
2024/01/10 07:45:22;;;;;;;16.67;10.80;;;-3.70;72.40;;;;;;5001502;28;20485;-83
2024/01/10 07:47:48;;;;;;;19.03;11.93;;;-3.70;72.30;;;;;;5016012;28;20503;-84
2024/01/10 07:50:14;;;;;;;16.83;11.07;;;-3.70;72.30;;;;;;5000787;28;20034;-84
2024/01/10 07:52:40;;;;;;;16.50;11.07;;;-3.70;72.30;;;;;;5004645;28;20034;-83
2024/01/10 07:55:06;;;;;;;19.13;10.97;;;-3.70;72.20;;;;;;5004650;28;20033;-83
2024/01/10 07:57:33;;;;;;;18.40;12.30;;;-3.70;72.20;;;;;;5004989;28;20151;-83
2024/01/10 07:59:59;;;;;;;20.00;11.90;;;-3.70;72.30;;;;;;5037579;28;20092;-83
2024/01/10 08:02:25;;;;;;;17.80;11.70;;;-3.70;72.30;;;;;;5020431;28;20350;-83
2024/01/10 08:04:51;;;;;;;17.87;11.43;;;-3.80;72.20;;;;;;5016302;28;20030;-83
2024/01/10 08:07:17;;;;;;;20.20;12.63;;;-3.80;72.20;;;;;;5001417;28;20341;-83
2024/01/10 08:09:42;;;;;;;17.70;11.43;;;-3.70;72.20;;;;;;5006183;28;20050;-82
2024/01/10 08:12:08;;;;;;;16.67;11.13;;;-3.50;72.40;;;;;;5016486;28;20037;-82
2024/01/10 08:14:34;;;;;;;21.10;12.53;;;-3.80;72.20;;;;;;5005308;28;20076;-82
2024/01/10 08:17:00;;;;;;;18.67;11.97;;;-3.80;72.30;;;;;;5017412;28;20046;-82
2024/01/10 08:19:27;;;;;;;23.13;13.33;;;-3.80;72.30;;;;;;5003326;28;20099;-82
2024/01/10 08:21:53;;;;;;;19.57;12.33;;;-3.80;72.40;;;;;;5001698;28;20042;-82
2024/01/10 08:24:22;;;;;;;20.27;11.67;;;-3.80;72.30;;;;;;5017909;28;20052;-82
2024/01/10 08:26:51;;;;;;;19.10;11.67;;;-3.80;72.40;;;;;;5003774;28;20130;-82
2024/01/10 08:29:21;;;;;;;18.50;12.17;;;-3.80;72.40;;;;;;5017279;28;20049;-82
2024/01/10 08:31:47;;;;;;;19.00;11.67;;;-3.80;72.40;;;;;;5009534;28;20442;-82
2024/01/10 08:34:13;;;;;;;18.97;11.37;;;-3.70;72.50;;;;;;5039802;28;20037;-82
2024/01/10 08:36:38;;;;;;;18.80;12.90;;;-3.70;72.40;;;;;;5004604;28;20045;-82
2024/01/10 08:39:04;;;;;;;19.90;12.07;;;-3.70;72.30;;;;;;5022463;28;20049;-82
2024/01/10 08:41:30;;;;;;;18.20;12.30;;;-3.70;72.30;;;;;;5001332;28;20057;-82
2024/01/10 08:43:56;;;;;;;18.20;11.60;;;-3.70;72.10;;;;;;5021972;28;20073;-82
2024/01/10 08:46:24;;;;;;;20.27;12.13;;;-3.70;72.00;;;;;;5022917;28;20405;-82
2024/01/10 08:48:50;;;;;;;21.90;10.67;;;-3.60;72.20;;;;;;5004356;28;20037;-82
2024/01/10 08:51:18;;;;;;;18.23;11.37;;;-3.60;71.60;;;;;;5007338;28;20109;-82
2024/01/10 08:53:44;;;;;;;19.10;11.90;;;-3.50;71.40;;;;;;5019011;28;20482;-84
2024/01/10 08:56:10;;;;;;;19.70;12.27;;;-3.50;71.40;;;;;;5017383;28;20033;-84
2024/01/10 08:58:36;;;;;;;19.73;12.30;;;-3.50;71.30;;;;;;5016410;28;20060;-84
2024/01/10 09:01:05;;;;;;;17.37;12.07;;;-3.40;71.40;;;;;;5018431;28;20037;-84
2024/01/10 09:03:31;;;;;;;19.87;12.97;;;-3.40;71.50;;;;;;5001740;28;20030;-85
2024/01/10 09:05:56;;;;;;;20.03;12.97;;;-3.40;71.60;;;;;;4999004;28;20032;-85
2024/01/10 09:08:25;;;;;;;19.50;11.07;;;-3.30;71.60;;;;;;5005563;28;20052;-85
2024/01/10 09:10:50;;;;;;;20.33;12.07;;;-3.30;71.70;;;;;;5004703;28;20121;-85
2024/01/10 09:13:17;;;;;;;20.33;12.73;;;-3.20;71.50;;;;;;5023795;28;20095;-85
2024/01/10 09:15:43;;;;;;;17.50;11.17;;;-3.20;71.30;;;;;;5030596;28;20038;-86
2024/01/10 09:18:09;;;;;;;17.97;10.93;;;-3.10;71.00;;;;;;5009806;28;20030;-85
2024/01/10 09:20:35;;;;;;;19.23;11.27;;;-3.00;70.60;;;;;;5000337;28;20075;-86
2024/01/10 09:23:02;;;;;;;19.73;13.03;;;-3.00;70.50;;;;;;5001375;28;20037;-86
2024/01/10 09:25:28;;;;;;;14.67;10.57;;;-3.00;70.10;;;;;;5003019;28;20041;-87
2024/01/10 09:27:54;;;;;;;19.00;11.03;;;-2.90;70.00;;;;;;5003967;28;20045;-87
2024/01/10 09:30:20;;;;;;;16.27;10.43;;;-2.90;70.00;;;;;;5006916;28;20040;-87
2024/01/10 09:32:45;;;;;;;18.10;11.00;;;-2.80;69.30;;;;;;4999222;28;20529;-86
2024/01/10 09:35:12;;;;;;;18.70;11.90;;;-2.80;68.90;;;;;;4998752;28;20029;-86
2024/01/10 09:37:37;;;;;;;16.63;10.87;;;-2.70;68.60;;;;;;5019909;28;20543;-86
2024/01/10 09:40:04;;;;;;;16.80;11.10;;;-2.70;68.30;;;;;;5000239;28;20034;-87
2024/01/10 09:42:31;;;;;;;18.13;10.93;;;-2.60;68.20;;;;;;5004390;28;20381;-86
2024/01/10 09:44:58;;;;;;;17.03;10.77;;;-2.50;67.80;;;;;;5022514;28;20049;-86
2024/01/10 09:47:24;;;;;;;18.20;10.53;;;-2.50;67.70;;;;;;5019604;28;20029;-86
2024/01/10 09:49:50;;;;;;;16.23;10.57;;;-2.40;67.50;;;;;;5017968;28;20045;-87
2024/01/10 09:52:27;;;;;;;15.63;11.43;;;-2.40;66.80;;;;;;5022084;28;20041;-87
2024/01/10 09:54:57;;;;;;;21.47;12.13;;;-2.30;66.00;;;;;;4997947;28;20113;-87
2024/01/10 09:57:26;;;;;;;18.00;10.17;;;-2.30;66.40;;;;;;5000105;28;20048;-86
2024/01/10 09:59:52;;;;;;;15.43;10.37;;;-2.20;66.80;;;;;;5000406;28;20041;-86
2024/01/10 10:02:20;;;;;;;15.70;10.30;;;-2.20;66.30;;;;;;5019337;28;20123;-86
2024/01/10 10:05:03;;;;;;;18.53;10.23;;;-2.10;66.10;;;;;;5000131;28;20068;-85
2024/01/10 10:07:29;;;;;;;17.73;11.43;;;-2.00;65.90;;;;;;5013930;28;20062;-85
2024/01/10 10:09:56;;;;;;;14.87;10.43;;;-2.00;65.80;;;;;;4999432;28;20559;-85
2024/01/10 10:12:23;;;;;;;16.60;10.97;;;-2.00;65.50;;;;;;5017490;28;20041;-84
2024/01/10 10:14:49;;;;;;;15.33;10.23;;;-1.90;65.50;;;;;;5020781;28;20152;-84
2024/01/10 10:17:18;;;;;;;15.10;10.67;;;-1.60;66.00;;;;;;5021968;28;20041;-82
2024/01/10 10:19:44;;;;;;;16.63;9.80;;;-1.80;65.00;;;;;;5006670;28;20037;-82
2024/01/10 10:22:11;;;;;;;14.40;9.50;;;-1.70;64.60;;;;;;5000746;28;20041;-82
2024/01/10 10:24:37;;;;;;;15.73;9.80;;;-1.70;64.40;;;;;;5004443;28;20492;-82
2024/01/10 10:27:12;;;;;;;15.40;9.77;;;-1.70;63.70;;;;;;5025699;28;20034;-82
2024/01/10 10:29:38;;;;;;;19.03;10.83;;;-1.60;63.70;;;;;;5001589;28;20384;-82
2024/01/10 10:32:06;;;;;;;16.67;9.50;;;-1.60;63.70;;;;;;5017402;28;20046;-84
2024/01/10 10:34:35;;;;;;;15.63;9.90;;;-1.50;63.30;;;;;;5022758;28;20037;-83
2024/01/10 10:37:01;;;;;;;15.20;8.83;;;-1.50;63.00;;;;;;5016857;28;20073;-82
2024/01/10 10:39:27;;;;;;;15.90;9.30;;;-1.40;62.80;;;;;;5004758;28;20408;-82
2024/01/10 10:41:54;;;;;;;13.97;9.10;;;-1.40;62.70;;;;;;5022759;28;20041;-83
2024/01/10 10:44:23;;;;;;;15.63;9.40;;;-1.40;62.60;;;;;;5001503;28;20056;-83
2024/01/10 10:46:56;;;;;;;15.00;9.67;;;-1.30;61.70;;;;;;5032257;28;20051;-83
2024/01/10 10:49:30;;;;;;;16.40;8.80;;;-1.30;61.50;;;;;;5003371;28;20465;-83
2024/01/10 10:51:59;;;;;;;15.32;8.55;;;-1.30;60.40;;;;;;5032396;28;20080;-82
2024/01/10 10:54:33;;;;;;;19.13;9.57;;;-1.20;60.60;;;;;;5005270;28;20047;-83
2024/01/10 10:57:02;;;;;;;14.13;8.60;;;-1.20;60.20;;;;;;5002764;28;20046;-82
2024/01/10 10:59:31;;;;;;;14.80;8.57;;;-1.20;60.10;;;;;;5003854;28;20052;-82
2024/01/10 11:01:56;;;;;;;15.83;9.33;;;-1.10;59.40;;;;;;5014811;28;20389;-82
2024/01/10 11:04:22;;;;;;;13.50;8.27;;;-1.10;58.50;;;;;;5010822;28;20064;-82
2024/01/10 11:06:48;;;;;;;14.07;8.53;;;-1.10;58.40;;;;;;5000868;28;20045;-82
2024/01/10 11:09:18;;;;;;;14.70;8.47;;;-1.00;58.40;;;;;;5001358;28;20037;-82
2024/01/10 11:11:59;;;;;;;15.30;8.43;;;-1.00;57.80;;;;;;5008701;28;20033;-82
2024/01/10 11:14:43;;;;;;;14.13;7.73;;;-1.00;57.90;;;;;;5023626;28;20046;-82
2024/01/10 11:17:29;;;;;;;13.23;8.30;;;-1.00;57.60;;;;;;5023405;28;20096;-82
2024/01/10 11:20:04;;;;;;;13.37;7.77;;;-0.90;56.60;;;;;;5013409;28;20137;-80
2024/01/10 11:22:50;;;;;;;13.38;7.50;;;-0.90;56.90;;;;;;5014958;28;20038;-79
2024/01/10 11:25:17;;;;;;;15.40;8.60;;;-0.90;56.70;;;;;;5004219;28;20128;-80
2024/01/10 11:27:43;;;;;;;14.93;8.90;;;-0.80;57.20;;;;;;5016460;28;20035;-79
2024/01/10 11:30:11;;;;;;;16.10;8.60;;;-0.80;56.90;;;;;;5017063;28;20186;-79
2024/01/10 11:32:37;;;;;;;15.57;8.33;;;-0.80;56.10;;;;;;5006576;28;20037;-79
2024/01/10 11:35:18;;;;;;;18.17;8.57;;;-0.80;56.00;;;;;;5020096;28;20071;-79
2024/01/10 11:37:46;;;;;;;13.67;8.13;;;-0.70;55.80;;;;;;5026378;28;20041;-79
2024/01/10 11:40:15;;;;;;;14.53;7.87;;;-0.70;55.80;;;;;;5019307;28;20038;-80
2024/01/10 11:42:46;;;;;;;13.50;7.73;;;-0.60;55.50;;;;;;5018232;28;20046;-80
2024/01/10 11:45:30;;;;;;;11.73;7.20;;;-0.60;55.10;;;;;;5017500;28;20057;-79
2024/01/10 11:47:56;;;;;;;10.25;5.50;;;-0.60;54.60;;;;;;5020722;28;20072;-79
2024/01/10 11:50:23;;;;;;;12.13;7.40;;;-0.50;55.20;;;;;;5013086;28;20034;-80
2024/01/10 11:52:53;;;;;;;13.33;7.50;;;-0.50;55.20;;;;;;5004817;28;20036;-80
2024/01/10 11:55:48;;;;;;;13.93;7.50;;;-0.50;55.10;;;;;;5022808;28;20045;-79
2024/01/10 11:58:14;;;;;;;13.48;7.75;;;-0.40;54.30;;;;;;5008972;28;20029;-79
2024/01/10 12:00:41;;;;;;;12.17;7.03;;;-0.40;55.00;;;;;;5022274;28;20097;-79
2024/01/10 12:03:07;;;;;;;12.20;7.37;;;-0.40;54.70;;;;;;5017992;28;20128;-80
2024/01/10 12:05:34;;;;;;;14.73;7.50;;;-0.30;54.60;;;;;;5038688;28;20037;-79
2024/01/10 12:08:06;;;;;;;12.90;7.23;;;-0.30;52.60;;;;;;5022642;28;20044;-79
2024/01/10 12:10:36;;;;;;;13.77;7.47;;;-0.20;53.00;;;;;;5018117;28;20033;-79
2024/01/10 12:13:02;;;;;;;13.53;7.10;;;-0.30;52.70;;;;;;5017236;28;20037;-79
2024/01/10 12:15:28;;;;;;;12.83;7.63;;;-0.20;53.10;;;;;;5037556;28;20412;-79
2024/01/10 12:17:55;;;;;;;14.50;8.33;;;-0.20;52.80;;;;;;5020217;28;20045;-79
2024/01/10 12:20:20;;;;;;;12.13;7.13;;;-0.20;53.00;;;;;;5023919;28;20041;-79
2024/01/10 12:22:46;;;;;;;12.80;7.43;;;-0.10;53.30;;;;;;5019545;28;20029;-80
2024/01/10 12:25:12;;;;;;;15.23;7.30;;;-0.10;53.30;;;;;;5017735;28;20500;-79
2024/01/10 12:27:37;;;;;;;13.57;7.00;;;-0.10;53.50;;;;;;4995523;28;20104;-79